createdAt,value
2023-03-14T00:01:47.366Z,11.32
2023-03-14T00:04:14.386Z,13.80
2023-03-14T00:06:41.341Z,13.27
2023-03-14T00:09:08.898Z,14.85
2023-03-14T00:11:35.980Z,17.77
2023-03-14T00:14:03.942Z,18.08
2023-03-14T00:16:30.899Z,15.63
2023-03-14T00:19:00.524Z,15.40
2023-03-14T00:21:27.444Z,17.23
2023-03-14T00:23:54.612Z,20.80
2023-03-14T00:26:22.655Z,20.00
2023-03-14T00:28:53.603Z,16.98
2023-03-14T00:31:20.959Z,20.50
2023-03-14T00:33:48.528Z,21.08
2023-03-14T00:36:17.894Z,22.98
2023-03-14T00:38:47.223Z,17.98
2023-03-14T00:41:17.304Z,25.90
2023-03-14T00:43:44.840Z,18.17
2023-03-14T00:46:12.031Z,19.15
2023-03-14T00:48:39.780Z,20.77
2023-03-14T00:51:07.977Z,19.98
2023-03-14T00:53:39.990Z,20.88
2023-03-14T00:56:10.636Z,20.35
2023-03-14T00:58:37.681Z,24.70
2023-03-14T01:01:10.749Z,23.05
2023-03-14T01:03:38.102Z,18.67
2023-03-14T01:06:17.821Z,17.88
2023-03-14T01:08:45.608Z,21.60
2023-03-14T01:11:24.270Z,18.63
2023-03-14T01:13:51.464Z,17.50
2023-03-14T01:16:20.375Z,23.77
2023-03-14T01:18:48.896Z,21.20
2023-03-14T01:21:23.556Z,11.35
2023-03-14T01:23:52.199Z,20.13
2023-03-14T01:26:22.052Z,16.75
2023-03-14T01:28:50.157Z,12.45
2023-03-14T01:31:18.540Z,16.20
2023-03-14T01:33:47.174Z,14.20
2023-03-14T01:36:14.585Z,17.98
2023-03-14T01:38:43.305Z,11.48
2023-03-14T01:41:19.986Z,11.20
2023-03-14T01:43:47.560Z,12.88
2023-03-14T01:46:26.585Z,11.00
2023-03-14T01:49:08.611Z,14.80
2023-03-14T01:51:46.236Z,11.18
2023-03-14T01:54:29.584Z,9.80
2023-03-14T01:57:19.939Z,11.63
2023-03-14T01:59:53.587Z,9.82
2023-03-14T02:02:20.920Z,9.40
2023-03-14T02:04:48.512Z,9.27
2023-03-14T02:07:23.849Z,10.80
2023-03-14T02:10:04.894Z,8.45
2023-03-14T02:12:35.887Z,6.25
2023-03-14T02:15:11.051Z,8.65
2023-03-14T02:18:11.058Z,6.95
2023-03-14T02:21:25.545Z,5.75
2023-03-14T02:24:18.427Z,5.45
2023-03-14T02:27:15.495Z,6.78
2023-03-14T02:30:25.096Z,5.72
2023-03-14T02:33:10.393Z,6.35
2023-03-14T02:35:51.691Z,5.55
2023-03-14T02:38:30.196Z,5.00
2023-03-14T02:40:57.326Z,5.00
2023-03-14T02:43:24.503Z,4.85
2023-03-14T02:45:58.169Z,4.10
2023-03-14T02:48:46.065Z,6.65
2023-03-14T02:51:14.899Z,4.10
2023-03-14T02:53:43.720Z,6.35
2023-03-14T02:56:12.909Z,4.63
2023-03-14T02:58:40.275Z,3.58
2023-03-14T03:01:27.355Z,5.07
2023-03-14T03:03:54.681Z,5.40
2023-03-14T03:06:21.700Z,4.43
2023-03-14T03:08:48.762Z,3.92
2023-03-14T03:11:16.429Z,4.28
2023-03-14T03:13:43.439Z,3.10
2023-03-14T03:16:10.643Z,4.13
2023-03-14T03:18:37.628Z,6.13
2023-03-14T03:21:06.836Z,3.38
2023-03-14T03:23:33.886Z,2.60
2023-03-14T03:26:00.974Z,2.42
2023-03-14T03:28:28.032Z,1.38
2023-03-14T03:30:55.658Z,2.67
2023-03-14T03:33:24.686Z,2.08
2023-03-14T03:35:53.283Z,3.28
2023-03-14T03:38:27.172Z,3.22
2023-03-14T03:40:55.246Z,2.50
2023-03-14T03:43:25.347Z,4.03
2023-03-14T03:45:52.740Z,4.20
2023-03-14T03:48:21.122Z,3.88
2023-03-14T03:50:48.408Z,6.82
2023-03-14T03:53:32.450Z,5.18
2023-03-14T03:56:02.607Z,4.72
2023-03-14T03:58:30.084Z,11.50
2023-03-14T04:00:57.073Z,8.02
2023-03-14T04:03:24.468Z,10.15
2023-03-14T04:06:02.702Z,7.03
2023-03-14T04:08:30.918Z,7.63
2023-03-14T04:10:59.578Z,7.20
2023-03-14T04:13:53.929Z,9.90
2023-03-14T04:16:24.281Z,10.18
2023-03-14T04:18:54.724Z,7.22
2023-03-14T04:21:23.436Z,8.90
2023-03-14T04:23:55.439Z,8.27
2023-03-14T04:26:22.480Z,8.82
2023-03-14T04:28:49.647Z,8.10
2023-03-14T04:31:19.836Z,6.93
2023-03-14T04:33:47.842Z,9.73
2023-03-14T04:36:17.911Z,4.60
2023-03-14T04:38:45.172Z,3.90
2023-03-14T04:41:13.597Z,5.25
2023-03-14T04:43:40.622Z,4.03
2023-03-14T04:46:09.376Z,4.25
2023-03-14T04:48:36.420Z,3.45
2023-03-14T04:51:03.924Z,3.17
2023-03-14T04:53:33.483Z,4.07
2023-03-14T04:56:03.956Z,3.20
2023-03-14T04:58:37.377Z,4.93
2023-03-14T05:01:06.766Z,2.30
2023-03-14T05:03:48.426Z,2.33
2023-03-14T05:06:15.382Z,4.18
2023-03-14T05:08:42.275Z,4.10
2023-03-14T05:11:27.864Z,3.30
2023-03-14T05:14:12.927Z,2.67
2023-03-14T05:16:59.069Z,1.75
2023-03-14T05:19:36.623Z,4.25
2023-03-14T05:22:12.887Z,2.92
2023-03-14T05:24:57.692Z,1.85
2023-03-14T05:27:27.431Z,3.63
2023-03-14T05:30:14.931Z,3.25
2023-03-14T05:33:02.022Z,2.88
2023-03-14T05:35:44.164Z,3.13
2023-03-14T05:38:49.445Z,9.45
2023-03-14T05:41:42.818Z,2.85
2023-03-14T05:44:32.951Z,2.38
2023-03-14T05:47:29.263Z,5.75
2023-03-14T05:50:19.466Z,6.80
2023-03-14T05:53:00.677Z,3.55
2023-03-14T05:55:55.907Z,4.90
2023-03-14T05:58:39.706Z,2.88
2023-03-14T06:01:45.155Z,3.15
2023-03-14T06:04:19.534Z,3.50
2023-03-14T06:06:51.725Z,5.00
2023-03-14T06:09:20.861Z,5.00
2023-03-14T06:11:47.831Z,7.57
2023-03-14T06:14:14.893Z,4.82
2023-03-14T06:16:45.757Z,6.97
2023-03-14T06:19:12.898Z,5.68
2023-03-14T06:21:40.643Z,5.03
2023-03-14T06:24:07.888Z,9.48
2023-03-14T06:26:41.439Z,7.07
2023-03-14T06:29:09.800Z,4.57
2023-03-14T06:31:37.876Z,6.95
2023-03-14T06:34:07.448Z,7.90
2023-03-14T06:36:34.372Z,6.88
2023-03-14T06:39:02.405Z,5.88
2023-03-14T06:41:31.785Z,7.05
2023-03-14T06:44:00.225Z,5.43
2023-03-14T06:46:27.691Z,5.90
2023-03-14T06:48:55.176Z,10.25
2023-03-14T06:51:22.207Z,8.88
2023-03-14T06:53:50.074Z,3.47
2023-03-14T06:56:20.047Z,4.90
2023-03-14T06:58:50.120Z,8.75
2023-03-14T07:01:25.573Z,7.18
2023-03-14T07:03:53.973Z,4.05
2023-03-14T07:06:22.917Z,5.20
2023-03-14T07:08:50.364Z,3.72
2023-03-14T07:11:18.369Z,6.05
2023-03-14T07:13:45.816Z,6.30
2023-03-14T07:16:12.975Z,8.15
2023-03-14T07:18:40.078Z,5.60
2023-03-14T07:21:08.387Z,8.02
2023-03-14T07:23:35.651Z,6.68
2023-03-14T07:26:03.241Z,6.45
2023-03-14T07:28:32.574Z,6.80
2023-03-14T07:31:08.035Z,9.00
2023-03-14T07:33:35.210Z,6.07
2023-03-14T07:36:04.564Z,6.97
2023-03-14T07:38:32.101Z,10.25
2023-03-14T07:41:31.639Z,9.68
2023-03-14T07:44:17.255Z,3.53
2023-03-14T07:46:44.363Z,5.18
2023-03-14T07:49:11.309Z,8.15
2023-03-14T07:51:38.385Z,3.42
2023-03-14T07:54:05.341Z,8.57
2023-03-14T07:56:32.277Z,4.13
2023-03-14T07:58:59.291Z,6.07
2023-03-14T08:01:26.450Z,6.78
2023-03-14T08:03:53.451Z,3.83
2023-03-14T08:06:20.473Z,7.57
2023-03-14T08:08:47.351Z,5.45
2023-03-14T08:11:14.539Z,5.78
2023-03-14T08:13:41.552Z,6.20
2023-03-14T08:16:09.090Z,9.10
2023-03-14T08:18:36.059Z,10.57
2023-03-14T08:21:03.207Z,10.60
2023-03-14T08:23:30.178Z,8.38
2023-03-14T08:25:57.169Z,4.95
2023-03-14T08:28:24.206Z,8.38
2023-03-14T08:30:51.245Z,8.93
2023-03-14T08:33:18.210Z,8.60
2023-03-14T08:35:45.181Z,12.68
2023-03-14T08:38:12.079Z,8.65
2023-03-14T08:40:39.044Z,6.97
2023-03-14T08:43:06.002Z,12.07
2023-03-14T08:45:32.926Z,8.18
2023-03-14T08:48:00.143Z,14.02
2023-03-14T08:50:27.571Z,8.55
2023-03-14T08:52:54.670Z,12.07
2023-03-14T08:55:22.129Z,12.30
2023-03-14T08:57:49.114Z,12.80
2023-03-14T09:00:16.684Z,8.48
2023-03-14T09:02:44.335Z,12.82
2023-03-14T09:05:12.157Z,6.75
2023-03-14T09:07:40.271Z,13.05
2023-03-14T09:10:08.737Z,9.75
2023-03-14T09:12:35.703Z,13.38
2023-03-14T09:15:03.182Z,10.48
2023-03-14T09:17:30.287Z,13.98
2023-03-14T09:20:00.121Z,7.43
2023-03-14T09:22:27.706Z,11.93
2023-03-14T09:24:54.622Z,13.15
2023-03-14T09:27:21.570Z,10.30
2023-03-14T09:29:48.445Z,10.40
2023-03-14T09:32:15.389Z,14.20
2023-03-14T09:34:42.384Z,13.75
2023-03-14T09:37:09.352Z,7.68
2023-03-14T09:39:36.760Z,11.05
2023-03-14T09:42:08.303Z,11.13
2023-03-14T09:44:43.568Z,9.70
2023-03-14T09:47:14.449Z,8.57
2023-03-14T09:49:43.050Z,16.23
2023-03-14T09:52:18.048Z,11.77
2023-03-14T09:54:50.691Z,14.75
2023-03-14T09:57:21.474Z,7.28
2023-03-14T09:59:50.674Z,11.50
2023-03-14T10:02:24.893Z,12.88
2023-03-14T10:04:54.551Z,13.48
2023-03-14T10:07:29.943Z,11.20
2023-03-14T10:09:57.605Z,9.80
2023-03-14T10:12:40.116Z,13.25
2023-03-14T10:15:12.987Z,7.63
2023-03-14T10:17:47.556Z,8.85
2023-03-14T10:20:34.065Z,10.05
2023-03-14T10:23:03.395Z,14.85
2023-03-14T10:25:35.738Z,10.98
2023-03-14T10:28:04.732Z,8.30
2023-03-14T10:30:47.410Z,10.13
2023-03-14T10:33:24.959Z,9.48
2023-03-14T10:35:58.535Z,11.35
2023-03-14T10:38:29.412Z,12.30
2023-03-14T10:40:58.656Z,9.85
2023-03-14T10:43:33.478Z,14.25
2023-03-14T10:46:15.413Z,9.63
2023-03-14T10:49:06.334Z,9.10
2023-03-14T10:51:33.717Z,10.02
2023-03-14T10:54:13.390Z,10.88
2023-03-14T10:56:40.624Z,8.65
2023-03-14T10:59:16.355Z,10.00
2023-03-14T11:02:00.797Z,11.98
2023-03-14T11:04:37.042Z,9.02
2023-03-14T11:07:30.862Z,11.93
2023-03-14T11:10:08.567Z,5.57
2023-03-14T11:12:45.619Z,10.35
2023-03-14T11:15:23.015Z,14.10
2023-03-14T11:18:37.503Z,7.95
2023-03-14T11:21:13.891Z,12.80
2023-03-14T11:23:59.649Z,8.68
2023-03-14T11:26:41.515Z,9.57
2023-03-14T11:29:36.122Z,11.23
2023-03-14T11:34:50.895Z,8.00
2023-03-14T11:37:44.909Z,11.77
2023-03-14T11:40:20.568Z,12.23
2023-03-14T11:42:57.323Z,9.52
2023-03-14T11:45:32.226Z,10.18
2023-03-14T11:48:24.498Z,11.13
2023-03-14T11:50:54.072Z,8.63
2023-03-14T11:53:31.355Z,8.80
2023-03-14T11:55:58.312Z,10.32
2023-03-14T11:58:30.460Z,9.10
2023-03-14T12:01:03.145Z,10.25
2023-03-14T12:03:38.276Z,9.50
2023-03-14T12:06:23.464Z,10.32
2023-03-14T12:09:21.075Z,11.05
2023-03-14T12:12:00.749Z,10.77
2023-03-14T12:14:32.805Z,10.05
2023-03-14T12:17:19.824Z,7.07
2023-03-14T12:19:48.206Z,9.85
2023-03-14T12:22:29.860Z,9.60
2023-03-14T12:25:27.292Z,9.95
2023-03-14T12:27:57.098Z,10.15
2023-03-14T12:30:37.995Z,13.05
2023-03-14T12:33:10.856Z,7.75
2023-03-14T12:35:52.440Z,8.68
2023-03-14T12:38:39.410Z,8.15
2023-03-14T12:41:47.463Z,7.38
2023-03-14T12:44:32.158Z,11.13
2023-03-14T12:47:00.573Z,5.30
2023-03-14T12:49:39.087Z,5.82
2023-03-14T12:52:15.993Z,6.45
2023-03-14T12:54:59.118Z,6.20
2023-03-14T12:57:34.243Z,6.30
2023-03-14T13:00:08.235Z,5.57
2023-03-14T13:02:46.006Z,4.25
2023-03-14T13:05:26.244Z,3.10
2023-03-14T13:07:56.664Z,3.80
2023-03-14T13:10:37.863Z,2.13
2023-03-14T13:13:27.770Z,1.40
2023-03-14T13:16:01.354Z,2.47
2023-03-14T13:18:31.987Z,2.55
2023-03-14T13:21:23.947Z,1.10
2023-03-14T13:24:01.688Z,0.45
2023-03-14T13:26:43.373Z,0.95
2023-03-14T13:29:21.305Z,0.73
2023-03-14T13:31:50.508Z,1.30
2023-03-14T13:34:18.595Z,1.27
2023-03-14T13:36:45.788Z,1.20
2023-03-14T13:39:20.579Z,1.98
2023-03-14T13:41:47.918Z,1.08
2023-03-14T13:44:18.337Z,1.95
2023-03-14T13:46:45.513Z,1.92
2023-03-14T13:49:18.837Z,1.75
2023-03-14T13:51:45.886Z,3.10
2023-03-14T13:54:21.360Z,2.40
2023-03-14T13:56:49.497Z,1.35
2023-03-14T13:59:24.171Z,1.85
2023-03-14T14:01:52.613Z,4.55
2023-03-14T14:04:23.128Z,3.17
2023-03-14T14:07:01.431Z,3.45
2023-03-14T14:09:39.403Z,6.13
2023-03-14T14:12:18.149Z,5.28
2023-03-14T14:14:57.762Z,3.65
2023-03-14T14:17:39.439Z,6.15
2023-03-14T14:20:10.038Z,7.50
2023-03-14T14:22:37.487Z,6.70
2023-03-14T14:25:05.177Z,7.20
2023-03-14T14:27:40.446Z,5.05
2023-03-14T14:30:31.271Z,5.72
2023-03-14T14:33:17.770Z,4.68
2023-03-14T14:35:53.893Z,5.00
2023-03-14T14:38:21.308Z,11.73
2023-03-14T14:40:52.629Z,4.18
2023-03-14T14:43:24.598Z,8.88
2023-03-14T14:45:54.524Z,5.20
2023-03-14T14:48:29.023Z,6.05
2023-03-14T14:51:06.368Z,8.40
2023-03-14T14:53:41.804Z,8.25
2023-03-14T14:56:27.618Z,9.55
2023-03-14T14:59:02.742Z,10.88
2023-03-14T15:01:40.428Z,3.72
2023-03-14T15:04:14.657Z,7.93
2023-03-14T15:06:46.032Z,5.10
2023-03-14T15:09:13.241Z,8.85
2023-03-14T15:11:40.288Z,8.57
2023-03-14T15:14:08.030Z,9.35
2023-03-14T15:16:35.486Z,5.63
2023-03-14T15:19:21.504Z,8.73
2023-03-14T15:21:50.749Z,5.78
2023-03-14T15:24:17.701Z,10.05
2023-03-14T15:26:45.424Z,7.55
2023-03-14T15:29:13.523Z,6.47
2023-03-14T15:31:41.957Z,5.30
2023-03-14T15:34:09.926Z,3.75
2023-03-14T15:36:37.957Z,4.88
2023-03-14T15:39:07.011Z,4.72
2023-03-14T15:41:34.451Z,6.80
2023-03-14T15:44:01.424Z,7.53
2023-03-14T15:46:30.889Z,3.30
2023-03-14T15:48:58.216Z,5.75
2023-03-14T15:51:25.164Z,4.30
2023-03-14T15:53:52.850Z,5.95
2023-03-14T15:56:21.420Z,6.65
2023-03-14T15:58:48.635Z,5.85
2023-03-14T16:01:19.706Z,6.25
2023-03-14T16:03:47.115Z,7.43
2023-03-14T16:06:14.943Z,6.38
2023-03-14T16:08:43.391Z,9.07
2023-03-14T16:11:12.666Z,6.38
2023-03-14T16:13:39.715Z,7.35
2023-03-14T16:16:08.134Z,7.03
2023-03-14T16:18:37.508Z,7.43
2023-03-14T16:21:07.908Z,8.50
2023-03-14T16:23:36.200Z,4.65
2023-03-14T16:26:12.912Z,4.30
2023-03-14T16:28:39.971Z,8.75
2023-03-14T16:31:09.310Z,9.27
2023-03-14T16:33:37.332Z,7.38
2023-03-14T16:36:08.452Z,9.15
2023-03-14T16:38:37.158Z,7.10
2023-03-14T16:41:13.354Z,10.30
2023-03-14T16:43:41.101Z,7.78
2023-03-14T16:46:12.558Z,7.80
2023-03-14T16:48:39.777Z,8.27
2023-03-14T16:51:06.892Z,10.38
2023-03-14T16:53:33.915Z,7.80
2023-03-14T16:56:00.888Z,9.13
2023-03-14T16:58:28.363Z,9.85
2023-03-14T17:00:57.802Z,4.95
2023-03-14T17:03:25.277Z,8.02
2023-03-14T17:05:52.855Z,10.40
2023-03-14T17:08:20.852Z,5.55
2023-03-14T17:10:49.331Z,6.68
2023-03-14T17:13:16.479Z,8.40
2023-03-14T17:15:47.196Z,5.50
2023-03-14T17:18:14.434Z,7.22
2023-03-14T17:20:41.395Z,7.25
2023-03-14T17:23:09.102Z,9.93
2023-03-14T17:25:37.728Z,6.53
2023-03-14T17:28:05.791Z,10.45
2023-03-14T17:30:32.926Z,10.70
2023-03-14T17:33:00.127Z,8.85
2023-03-14T17:35:27.176Z,10.82
2023-03-14T17:37:54.152Z,8.20
2023-03-14T17:40:21.108Z,8.07
2023-03-14T17:42:48.065Z,10.70
2023-03-14T17:45:15.021Z,5.47
2023-03-14T17:47:42.033Z,10.55
2023-03-14T17:50:09.656Z,11.70
2023-03-14T17:52:37.441Z,10.30
2023-03-14T17:55:05.508Z,8.52
2023-03-14T17:57:33.510Z,7.82
2023-03-14T18:00:00.392Z,5.95
2023-03-14T18:02:27.522Z,8.80
2023-03-14T18:04:54.622Z,8.15
2023-03-14T18:07:21.913Z,6.30
2023-03-14T18:09:48.910Z,7.82
2023-03-14T18:12:15.900Z,11.60
2023-03-14T18:14:45.453Z,6.95
2023-03-14T18:17:13.401Z,6.15
2023-03-14T18:19:41.386Z,8.82
2023-03-14T18:22:08.721Z,7.75
2023-03-14T18:24:35.975Z,12.20
2023-03-14T18:27:02.975Z,8.88
2023-03-14T18:29:30.304Z,9.55
2023-03-14T18:31:58.425Z,7.53
2023-03-14T18:34:26.103Z,7.43
2023-03-14T18:36:53.208Z,8.82
2023-03-14T18:39:20.134Z,5.85
2023-03-14T18:41:47.130Z,6.80
2023-03-14T18:44:14.053Z,14.75
2023-03-14T18:46:42.532Z,10.23
2023-03-14T18:49:10.780Z,6.72
2023-03-14T18:51:37.790Z,10.60
2023-03-14T18:54:10.450Z,16.65
2023-03-14T18:56:39.908Z,8.10
2023-03-14T18:59:08.880Z,10.75
2023-03-14T19:01:36.712Z,5.10
2023-03-14T19:04:05.050Z,7.15
2023-03-14T19:06:33.086Z,9.73
2023-03-14T19:09:01.493Z,8.43
2023-03-14T19:11:28.882Z,5.50
2023-03-14T19:13:56.949Z,7.93
2023-03-14T19:16:24.996Z,5.45
2023-03-14T19:18:52.465Z,4.40
2023-03-14T19:21:30.158Z,14.52
2023-03-14T19:23:57.302Z,9.45
2023-03-14T19:26:24.619Z,6.25
2023-03-14T19:28:55.243Z,9.30
2023-03-14T19:31:22.267Z,8.18
2023-03-14T19:33:49.446Z,8.38
2023-03-14T19:36:31.889Z,9.77
2023-03-14T19:39:01.976Z,8.95
2023-03-14T19:41:29.230Z,8.23
2023-03-14T19:43:56.510Z,9.93
2023-03-14T19:46:24.006Z,13.27
2023-03-14T19:48:54.330Z,9.38
2023-03-14T19:51:24.770Z,9.75
2023-03-14T19:53:52.502Z,13.75
2023-03-14T19:56:20.754Z,9.73
2023-03-14T19:58:47.860Z,11.33
2023-03-14T20:01:14.918Z,10.18
2023-03-14T20:03:42.083Z,12.50
2023-03-14T20:06:12.462Z,12.00
2023-03-14T20:08:40.959Z,10.75
2023-03-14T20:11:08.925Z,10.68
2023-03-14T20:13:35.936Z,15.60
2023-03-14T20:16:10.494Z,14.00
2023-03-14T20:18:38.069Z,10.65
2023-03-14T20:21:10.036Z,11.20
2023-03-14T20:23:37.265Z,11.35
2023-03-14T20:26:04.737Z,14.32
2023-03-14T20:28:32.325Z,12.18
2023-03-14T20:31:00.445Z,11.25
2023-03-14T20:33:27.526Z,10.23
2023-03-14T20:35:59.365Z,9.90
2023-03-14T20:38:27.416Z,12.68
2023-03-14T20:41:01.236Z,11.98
2023-03-14T20:43:30.003Z,8.95
2023-03-14T20:45:59.355Z,10.32
2023-03-14T20:48:27.821Z,9.88
2023-03-14T20:50:55.424Z,19.00
2023-03-14T20:53:23.345Z,7.00
2023-03-14T20:55:51.623Z,10.75
2023-03-14T20:58:18.882Z,9.20
2023-03-14T21:00:48.137Z,11.55
2023-03-14T21:03:16.278Z,10.48
2023-03-14T21:05:47.738Z,7.90
2023-03-14T21:08:17.817Z,8.02
2023-03-14T21:10:50.822Z,13.57
2023-03-14T21:13:18.022Z,16.15
2023-03-14T21:15:45.483Z,8.30
2023-03-14T21:18:12.773Z,12.70
2023-03-14T21:20:41.038Z,10.25
2023-03-14T21:23:08.982Z,12.82
2023-03-14T21:25:36.095Z,8.23
2023-03-14T21:28:04.307Z,9.45
2023-03-14T21:30:32.848Z,11.75
2023-03-14T21:33:00.083Z,12.82
2023-03-14T21:35:27.102Z,13.63
2023-03-14T21:37:54.008Z,9.10
2023-03-14T21:40:21.339Z,9.15
2023-03-14T21:42:48.891Z,11.55
2023-03-14T21:45:16.783Z,11.85
2023-03-14T21:47:47.526Z,8.40
2023-03-14T21:50:15.461Z,9.57
2023-03-14T21:52:46.241Z,10.80
2023-03-14T21:55:20.434Z,7.80
2023-03-14T21:57:49.223Z,8.80
2023-03-14T22:00:19.832Z,8.90
2023-03-14T22:02:58.307Z,6.68
2023-03-14T22:05:35.465Z,11.98
2023-03-14T22:08:02.616Z,9.90
2023-03-14T22:10:29.552Z,6.43
2023-03-14T22:12:57.852Z,7.90
2023-03-14T22:15:24.896Z,7.78
2023-03-14T22:17:51.891Z,7.90
2023-03-14T22:20:18.938Z,8.65
2023-03-14T22:22:45.822Z,10.75
2023-03-14T22:25:12.750Z,9.30
2023-03-14T22:27:39.672Z,8.07
2023-03-14T22:30:07.194Z,12.02
2023-03-14T22:32:34.430Z,10.32
2023-03-14T22:35:01.452Z,10.82
2023-03-14T22:37:28.469Z,12.57
2023-03-14T22:39:55.440Z,8.65
2023-03-14T22:42:22.429Z,9.38
2023-03-14T22:44:52.065Z,11.65
2023-03-14T22:47:19.036Z,5.53
2023-03-14T22:49:45.972Z,10.18
2023-03-14T22:52:13.443Z,5.22
2023-03-14T22:54:40.377Z,7.65
2023-03-14T22:57:07.399Z,10.32
2023-03-14T22:59:34.389Z,11.10
2023-03-14T23:02:01.321Z,11.75
2023-03-14T23:04:28.283Z,9.55
2023-03-14T23:06:55.248Z,10.65
2023-03-14T23:09:22.165Z,10.75
2023-03-14T23:11:49.110Z,8.23
2023-03-14T23:14:15.994Z,10.60
2023-03-14T23:16:43.075Z,11.27
2023-03-14T23:19:11.086Z,7.95
2023-03-14T23:21:38.218Z,16.73
2023-03-14T23:24:06.167Z,8.73
2023-03-14T23:26:35.830Z,11.80
2023-03-14T23:29:06.840Z,12.77
2023-03-14T23:31:34.338Z,9.35
2023-03-14T23:34:01.710Z,11.57
2023-03-14T23:36:29.730Z,8.70
2023-03-14T23:38:56.954Z,8.13
2023-03-14T23:41:23.924Z,13.75
2023-03-14T23:43:50.883Z,12.15
2023-03-14T23:46:18.006Z,14.40
2023-03-14T23:48:47.800Z,11.50
2023-03-14T23:51:15.818Z,10.40
2023-03-14T23:53:43.197Z,10.05
2023-03-14T23:56:12.685Z,11.27
2023-03-14T23:58:39.884Z,12.50
